Nimbus Weather Services

Informe meteorológico para Carrasco, Uruguay. El informe se hizo hace un momento, a las 21:00 UTC. El viento soplaba a una velocidad de 5.7 m/s (12.7 millas por hora) del sureste (140°). La temperatura era 20 °C (68 °F), con un punto de rocío de 14 °C (57 °F). La presión atmosférica era 1013 hPa (29.91 inHg). Había una humedad relativa del 68.4%. Cielo: nubes dispersas a una altitud de 610 metros (2000 pies). En aquel momento la visibilidad global era mayor de 10 kilómetros (6.2 millas).

La clave METAR es: SUMU 022100Z 14011KT 9999 SCT020 20/14 Q1013 NOSIG

Consulta realizada el Viernes 2 de Diciembre de 2022 18:01. Tiempo usado para generar esta pagina:6,000 ms.